Portada
METAR-TAF:

METAR-TAF

Aeropuertos :

Trípoli, Libia

Aeropuerto Internacional Mitiga

latitud: 32-54N, longitud: 13-17E, altitud: 11 m

Observación

El informe se hizo hace 47 minutos, a las 19:50 UTC
Viento 3 kt del este-noreste
Temperatura 32°C
Humedad 36%
Presión 1011 hPa
Visibilidad: 6000 m
Cielo despejado

METAR: HLLM 241950Z 07003KT 6000 SKC 32/15 Q1011

Hora: 22:37 (20:37 UTC)

Pronóstico

El informe se hizo hace 9 horas y 37 minutos, a las 11:00 UTC
Pronóstico válido del 24 a las 12 UTC al 25 a las 12 UTC
Viento 2 kt con dirección variable
Visibilidad: 8000 m
Evolucionando progresivamente
del 25 a las 00 UTC al 25 a las 02 UTC
Viento 8 kt del este-noreste
Evolucionando progresivamente
del 25 a las 10 UTC al 25 a las 12 UTC
Viento 10 kt del norte
Visibilidad 10 km o más
sin nubes por debajo de 1500 m y sin presencia de cumulonimbus.

TAF: HLLM 241100Z 2412/2512 VRB02KT 8000 NSC BECMG 2500/2502 06008KT BECMG 2510/2512 36010KT CAVOK

Observaciones y pronósticos meteorológicos de más de 4000 aeropuertos (mensajes METAR y TAF).

Los puntos amarillos y rojos representan las estaciones disponibles.

Ponga el ratón en el punto deseado para ver el nombre de la estación.

Haga clic para ver las observaciones y los pronósticos meteorológicos.

Para cambiar el mapa : haga clic en los botones verdes con una cruz de color negro para hacer un zoom, en el botón verde con un guión para alejar o en las flechas verdes para mapas adyacentes.


METAR-TAF: